Time;durP1;ratioP1;P1;durP2;ratioP2;P2;SDS_P1;SDS_P2;PMS_P1;PMS_P2;Temp;Humidity;BMP_temperature;BMP_pressure;BME280_temperature;BME280_humidity;BME280_pressure;Samples;Min_cycle;Max_cycle;Signal;HPM_P1;HPM_P2
2024/01/30 05:03:03;;;;;;;19.63;2.97;;;4.30;96.10;;;;;;4997540;28;20484;-75
2024/01/30 05:05:28;;;;;;;2.90;2.43;;;4.30;95.90;;;;;;4991937;28;20439;-75
2024/01/30 05:07:54;;;;;;;4.40;3.33;;;4.20;95.90;;;;;;4992004;28;20185;-75
2024/01/30 05:10:22;;;;;;;2.40;1.40;;;4.20;95.90;;;;;;4986055;28;20192;-75
2024/01/30 05:12:50;;;;;;;2.93;1.40;;;4.20;95.80;;;;;;5022249;28;20239;-73
2024/01/30 05:15:15;;;;;;;1.47;1.37;;;4.20;95.80;;;;;;5019961;28;20515;-74
2024/01/30 05:17:42;;;;;;;5.13;2.50;;;4.10;95.80;;;;;;5023555;28;20495;-74
2024/01/30 05:20:09;;;;;;;2.20;1.10;;;4.10;95.70;;;;;;4991921;28;20185;-73
2024/01/30 05:22:34;;;;;;;1.63;1.50;;;4.10;95.90;;;;;;4999704;28;20462;-74
2024/01/30 05:25:00;;;;;;;1.43;1.40;;;4.00;95.90;;;;;;5008017;28;20946;-74
2024/01/30 05:27:25;;;;;;;1.30;1.20;;;3.90;96.10;;;;;;5027917;28;20188;-77
2024/01/30 05:29:51;;;;;;;4.80;1.43;;;3.90;96.20;;;;;;5015655;28;20239;-76
2024/01/30 05:32:16;;;;;;;1.53;1.37;;;3.70;96.60;;;;;;4994637;28;20213;-74
2024/01/30 05:34:42;;;;;;;1.47;1.37;;;3.70;96.80;;;;;;5016062;28;20200;-73
2024/01/30 05:37:07;;;;;;;1.70;1.60;;;3.60;96.90;;;;;;5026376;28;20191;-76
2024/01/30 05:39:35;;;;;;;1.00;0.90;;;3.60;97.10;;;;;;4994955;28;20192;-75
2024/01/30 05:42:01;;;;;;;5.53;2.10;;;3.60;97.10;;;;;;5008572;28;20569;-74
2024/01/30 05:44:26;;;;;;;3.43;2.40;;;3.60;97.10;;;;;;5007983;28;20442;-75
2024/01/30 05:46:53;;;;;;;1.03;0.93;;;3.60;97.10;;;;;;5023822;28;20200;-74
2024/01/30 05:49:19;;;;;;;1.73;1.63;;;3.50;97.10;;;;;;4992829;28;20216;-74
2024/01/30 05:51:44;;;;;;;1.20;1.10;;;3.50;96.90;;;;;;5005110;28;20444;-74
2024/01/30 05:54:11;;;;;;;1.33;1.27;;;3.50;96.90;;;;;;5002264;28;20559;-74
2024/01/30 05:56:37;;;;;;;1.50;1.40;;;3.70;96.60;;;;;;5020835;28;20326;-72
2024/01/30 05:59:02;;;;;;;1.10;1.00;;;3.80;96.20;;;;;;5003126;28;20526;-73
2024/01/30 06:01:29;;;;;;;1.83;1.63;;;4.00;95.50;;;;;;5019755;28;20584;-73
2024/01/30 06:03:55;;;;;;;2.00;1.90;;;4.10;95.30;;;;;;5021274;28;20207;-73
2024/01/30 06:06:20;;;;;;;1.90;1.20;;;4.10;95.00;;;;;;5012254;28;20427;-73
2024/01/30 06:08:46;;;;;;;1.00;0.90;;;4.10;95.10;;;;;;4998339;28;20485;-73
2024/01/30 06:11:12;;;;;;;8.67;1.90;;;4.10;94.90;;;;;;5008323;28;20687;-72
2024/01/30 06:13:37;;;;;;;1.50;1.40;;;4.10;94.80;;;;;;5008138;28;20729;-73
2024/01/30 06:16:03;;;;;;;1.30;1.20;;;4.10;94.80;;;;;;5006596;28;20455;-73
2024/01/30 06:18:30;;;;;;;1.60;1.50;;;4.20;94.50;;;;;;5016011;28;20187;-73
2024/01/30 06:20:56;;;;;;;1.40;1.30;;;4.20;94.30;;;;;;5008487;28;20319;-71
2024/01/30 06:23:21;;;;;;;2.20;1.17;;;4.30;93.90;;;;;;5016836;28;21003;-74
2024/01/30 06:25:47;;;;;;;1.27;1.10;;;4.40;93.70;;;;;;5019090;28;20180;-73
2024/01/30 06:28:12;;;;;;;2.00;1.90;;;4.40;93.50;;;;;;5001878;28;20186;-74
2024/01/30 06:30:38;;;;;;;1.67;1.57;;;4.40;93.50;;;;;;5012028;28;20204;-73
2024/01/30 06:33:04;;;;;;;2.30;1.70;;;4.40;93.20;;;;;;5027049;28;20279;-73
2024/01/30 06:35:30;;;;;;;3.23;3.10;;;4.40;93.30;;;;;;5020060;28;20283;-73
2024/01/30 06:37:55;;;;;;;1.23;1.13;;;4.40;93.30;;;;;;5006700;28;20308;-71
2024/01/30 06:40:21;;;;;;;1.87;1.80;;;4.40;93.20;;;;;;5007936;28;20448;-74
2024/01/30 06:42:46;;;;;;;1.50;1.40;;;4.50;93.00;;;;;;5014712;28;20195;-74
2024/01/30 06:45:12;;;;;;;7.83;3.20;;;4.50;92.90;;;;;;5007122;28;20784;-73
2024/01/30 06:47:37;;;;;;;1.30;1.20;;;4.50;92.80;;;;;;5033162;28;20678;-74
2024/01/30 06:50:03;;;;;;;3.53;2.03;;;4.50;92.80;;;;;;5032342;28;20184;-74
2024/01/30 06:52:29;;;;;;;5.40;2.10;;;4.50;92.90;;;;;;5010594;28;20302;-74
2024/01/30 06:54:54;;;;;;;1.63;1.40;;;4.40;92.90;;;;;;5005277;28;20431;-74
2024/01/30 06:57:20;;;;;;;1.00;0.90;;;4.40;93.00;;;;;;5028569;28;20545;-74
2024/01/30 06:59:46;;;;;;;3.47;1.60;;;4.40;93.10;;;;;;5010543;28;20206;-74
2024/01/30 07:02:11;;;;;;;2.80;2.20;;;4.30;93.20;;;;;;5010041;28;20597;-74
2024/01/30 07:04:37;;;;;;;1.67;1.63;;;4.30;93.50;;;;;;5016802;28;20200;-75
2024/01/30 07:07:04;;;;;;;1.53;1.43;;;4.30;93.40;;;;;;5001132;28;20189;-74
2024/01/30 07:09:30;;;;;;;3.10;2.30;;;4.30;93.20;;;;;;5010307;28;20231;-74
2024/01/30 07:11:58;;;;;;;1.97;1.87;;;4.30;93.40;;;;;;5003979;28;20478;-74
2024/01/30 07:14:25;;;;;;;1.53;1.43;;;4.30;93.40;;;;;;5025633;28;20419;-74
2024/01/30 07:16:52;;;;;;;1.10;1.00;;;4.30;93.60;;;;;;5026418;28;20470;-74
2024/01/30 07:19:17;;;;;;;1.70;1.60;;;4.30;93.50;;;;;;5010441;28;20447;-74
2024/01/30 07:21:43;;;;;;;2.57;2.37;;;4.30;93.90;;;;;;5002188;28;21024;-74
2024/01/30 07:24:09;;;;;;;2.13;1.97;;;4.30;93.80;;;;;;5011663;28;20184;-73
2024/01/30 07:26:35;;;;;;;1.50;1.40;;;4.40;93.20;;;;;;5030060;28;20419;-75
2024/01/30 07:29:01;;;;;;;1.40;1.30;;;4.50;92.90;;;;;;5022424;28;20199;-75
2024/01/30 07:31:26;;;;;;;1.17;1.07;;;4.60;92.60;;;;;;5013838;28;20431;-74
2024/01/30 07:33:52;;;;;;;2.40;2.20;;;4.70;92.50;;;;;;4999918;28;20748;-74
2024/01/30 07:36:17;;;;;;;1.30;1.20;;;4.80;92.10;;;;;;5020071;28;20190;-69
2024/01/30 07:38:43;;;;;;;15.97;2.37;;;4.80;92.20;;;;;;5006523;28;20242;-74
2024/01/30 07:41:08;;;;;;;1.43;1.33;;;4.90;92.00;;;;;;4998012;28;20224;-75
2024/01/30 07:43:34;;;;;;;1.20;1.10;;;4.90;91.80;;;;;;5011132;28;20506;-75
2024/01/30 07:46:01;;;;;;;1.57;1.30;;;5.00;91.60;;;;;;5014724;28;20193;-75
2024/01/30 07:48:27;;;;;;;1.73;1.63;;;5.10;91.10;;;;;;4998554;28;20661;-75
2024/01/30 07:50:53;;;;;;;6.83;2.30;;;5.10;91.20;;;;;;5007796;28;20494;-74
2024/01/30 07:53:18;;;;;;;14.03;1.73;;;5.20;90.80;;;;;;5022429;28;20243;-74
2024/01/30 07:55:46;;;;;;;1.57;1.50;;;5.20;90.80;;;;;;5021382;28;20185;-75
2024/01/30 07:58:12;;;;;;;1.00;0.90;;;5.30;90.50;;;;;;5016520;28;20181;-75
2024/01/30 08:00:38;;;;;;;1.50;1.40;;;5.40;90.70;;;;;;4999775;28;20449;-73
2024/01/30 08:03:04;;;;;;;1.17;1.07;;;5.40;90.50;;;;;;5010982;28;20251;-75
2024/01/30 08:05:30;;;;;;;1.47;1.37;;;5.40;90.40;;;;;;5013001;28;20648;-75
2024/01/30 08:07:55;;;;;;;2.07;1.93;;;5.50;90.40;;;;;;5007003;28;20481;-75
2024/01/30 08:10:21;;;;;;;1.57;1.47;;;5.50;90.20;;;;;;5011805;28;20427;-74
2024/01/30 08:12:46;;;;;;;1.60;1.50;;;5.60;90.40;;;;;;5021133;28;20758;-76
2024/01/30 08:15:13;;;;;;;1.83;1.73;;;5.60;90.10;;;;;;5011142;28;20184;-74
2024/01/30 08:17:40;;;;;;;2.07;1.93;;;5.70;90.10;;;;;;5021808;28;20188;-75
2024/01/30 08:20:08;;;;;;;2.23;2.03;;;5.80;90.10;;;;;;5021685;28;20423;-76
2024/01/30 08:22:34;;;;;;;1.10;1.00;;;5.80;90.20;;;;;;5013095;28;20598;-75
2024/01/30 08:24:59;;;;;;;1.20;1.10;;;5.80;90.10;;;;;;5012528;28;20427;-74
2024/01/30 08:27:25;;;;;;;1.10;1.00;;;5.90;90.10;;;;;;5023855;28;20423;-75
2024/01/30 08:29:50;;;;;;;1.37;1.27;;;6.00;90.00;;;;;;5001879;28;20563;-75
2024/01/30 08:32:16;;;;;;;1.67;1.63;;;6.00;89.90;;;;;;5027718;28;20212;-75
2024/01/30 08:34:41;;;;;;;1.10;1.07;;;6.10;90.20;;;;;;5001998;28;20445;-75
2024/01/30 08:37:07;;;;;;;2.20;1.10;;;6.10;89.60;;;;;;5019227;28;20181;-75
2024/01/30 08:39:33;;;;;;;2.00;1.23;;;6.20;90.00;;;;;;5010798;28;20176;-74
2024/01/30 08:41:58;;;;;;;3.30;2.10;;;6.30;89.60;;;;;;5028398;28;20222;-75
2024/01/30 08:44:24;;;;;;;1.87;1.73;;;6.40;88.90;;;;;;4999186;28;20208;-75
2024/01/30 08:46:50;;;;;;;1.23;1.13;;;6.50;88.80;;;;;;5025036;28;20212;-76
2024/01/30 08:49:16;;;;;;;3.90;2.30;;;6.60;88.80;;;;;;5006443;28;20258;-76
2024/01/30 08:51:42;;;;;;;2.27;1.97;;;6.70;88.90;;;;;;5000494;28;20447;-75
2024/01/30 08:54:09;;;;;;;1.77;1.67;;;6.80;88.70;;;;;;5024164;28;20822;-76
2024/01/30 08:56:34;;;;;;;2.03;1.90;;;6.90;88.70;;;;;;5030541;28;20177;-76
2024/01/30 08:59:00;;;;;;;1.73;1.63;;;6.90;88.30;;;;;;5029756;28;20411;-76
2024/01/30 09:01:26;;;;;;;4.43;1.83;;;7.00;88.30;;;;;;5011918;28;20236;-75
2024/01/30 09:03:52;;;;;;;2.43;2.23;;;7.10;88.30;;;;;;5029021;28;20192;-71
2024/01/30 09:06:17;;;;;;;2.47;2.10;;;7.10;88.10;;;;;;5006265;28;20442;-75
2024/01/30 09:08:43;;;;;;;1.30;1.20;;;7.20;87.90;;;;;;5012556;28;20220;-75
2024/01/30 09:11:11;;;;;;;2.30;2.10;;;7.20;87.90;;;;;;5006404;28;20519;-76
2024/01/30 09:13:37;;;;;;;6.63;3.70;;;7.30;87.60;;;;;;5024094;28;20209;-75
2024/01/30 09:16:03;;;;;;;9.20;3.00;;;7.30;88.00;;;;;;5029960;28;20450;-73
2024/01/30 09:18:28;;;;;;;1.70;1.60;;;7.40;87.90;;;;;;5022968;28;20419;-75
2024/01/30 09:20:54;;;;;;;1.40;1.30;;;7.50;88.00;;;;;;5020610;28;20200;-74
2024/01/30 09:23:19;;;;;;;3.53;1.77;;;7.50;88.10;;;;;;5011365;28;20823;-76
2024/01/30 09:25:45;;;;;;;7.40;3.03;;;7.60;87.70;;;;;;5008530;28;20185;-75
2024/01/30 09:28:11;;;;;;;2.00;1.90;;;7.60;87.90;;;;;;4987394;28;20548;-76
2024/01/30 09:30:36;;;;;;;5.17;2.20;;;7.70;87.80;;;;;;4997851;28;20209;-76
2024/01/30 09:33:02;;;;;;;3.33;2.30;;;7.80;88.10;;;;;;4997944;28;20815;-75
2024/01/30 09:35:28;;;;;;;1.53;1.47;;;7.90;87.90;;;;;;4991844;28;20216;-76
2024/01/30 09:37:54;;;;;;;4.20;1.87;;;7.90;87.60;;;;;;4992298;28;20181;-75
2024/01/30 09:40:20;;;;;;;2.60;2.40;;;8.00;87.60;;;;;;4999515;28;20423;-76
2024/01/30 09:42:49;;;;;;;1.10;1.00;;;8.00;87.80;;;;;;4991539;28;20641;-76
2024/01/30 09:45:14;;;;;;;1.50;1.40;;;8.10;87.50;;;;;;5000553;28;20227;-76
2024/01/30 09:47:45;;;;;;;2.03;1.53;;;8.20;87.90;;;;;;5002623;28;20477;-75
2024/01/30 09:50:15;;;;;;;3.03;2.83;;;8.20;87.50;;;;;;5010094;28;20424;-77
2024/01/30 09:52:42;;;;;;;3.27;2.90;;;8.30;87.40;;;;;;5009602;28;20806;-76
2024/01/30 09:55:08;;;;;;;1.77;1.73;;;8.30;87.50;;;;;;5031060;28;20481;-77
2024/01/30 09:57:38;;;;;;;1.80;1.70;;;8.40;87.80;;;;;;4993063;28;20424;-70
2024/01/30 10:00:06;;;;;;;5.13;3.60;;;8.40;87.20;;;;;;5004510;28;20413;-68
2024/01/30 10:02:32;;;;;;;1.70;1.60;;;8.50;87.30;;;;;;5009309;28;20480;-76
2024/01/30 10:04:58;;;;;;;3.17;1.63;;;8.50;87.40;;;;;;4990901;28;20797;-70
2024/01/30 10:07:24;;;;;;;1.33;1.23;;;8.50;87.30;;;;;;4999861;28;20184;-72
2024/01/30 10:09:49;;;;;;;1.43;1.40;;;8.60;87.50;;;;;;5016644;28;20486;-77
2024/01/30 10:12:15;;;;;;;1.90;1.80;;;8.60;87.20;;;;;;5005824;28;20272;-76
2024/01/30 10:14:42;;;;;;;2.37;2.17;;;8.60;87.10;;;;;;5008410;28;20178;-76
2024/01/30 10:17:11;;;;;;;1.50;1.40;;;8.60;87.20;;;;;;4991453;28;20448;-73
2024/01/30 10:19:41;;;;;;;5.80;2.10;;;8.70;87.80;;;;;;5008546;28;20427;-72
2024/01/30 10:22:07;;;;;;;1.13;1.03;;;8.70;87.00;;;;;;4991346;28;20539;-74
2024/01/30 10:24:36;;;;;;;2.17;2.00;;;8.70;87.10;;;;;;4990545;28;20507;-74
2024/01/30 10:27:01;;;;;;;7.40;3.23;;;8.80;87.30;;;;;;4998877;28;20201;-79
2024/01/30 10:29:28;;;;;;;3.90;3.63;;;8.90;87.40;;;;;;5008094;28;20448;-76
2024/01/30 10:32:01;;;;;;;2.17;1.83;;;9.00;87.20;;;;;;4990524;28;20438;-78
2024/01/30 10:34:27;;;;;;;1.63;1.53;;;9.10;87.20;;;;;;5016906;28;20927;-75
2024/01/30 10:37:02;;;;;;;3.23;2.30;;;9.20;87.10;;;;;;5015207;28;20416;-78
2024/01/30 10:39:32;;;;;;;8.80;1.47;;;9.20;87.30;;;;;;5008931;28;20415;-74
2024/01/30 10:42:03;;;;;;;8.33;2.50;;;9.30;87.40;;;;;;5028795;28;20469;-76
2024/01/30 10:44:33;;;;;;;1.53;1.47;;;9.40;87.50;;;;;;5019472;28;20412;-73
2024/01/30 10:47:06;;;;;;;6.03;2.00;;;9.40;87.10;;;;;;5010792;28;20454;-76
2024/01/30 10:49:33;;;;;;;1.63;1.53;;;9.40;87.20;;;;;;5021469;28;20985;-75
2024/01/30 10:51:59;;;;;;;3.57;3.37;;;9.50;87.70;;;;;;5020913;28;20483;-80
2024/01/30 10:54:26;;;;;;;1.80;1.70;;;9.60;87.20;;;;;;5023653;28;20427;-78
2024/01/30 10:56:52;;;;;;;2.23;2.03;;;9.70;86.90;;;;;;5001143;28;20982;-74
2024/01/30 10:59:19;;;;;;;6.20;1.83;;;9.80;87.30;;;;;;5031661;28;20418;-79
2024/01/30 11:01:45;;;;;;;2.27;1.43;;;9.80;87.00;;;;;;5032570;28;20951;-78
2024/01/30 11:04:10;;;;;;;2.20;1.33;;;9.90;87.20;;;;;;5032669;28;20426;-79
2024/01/30 11:06:42;;;;;;;1.70;1.60;;;9.90;86.80;;;;;;5032393;28;20434;-79
2024/01/30 11:09:12;;;;;;;2.60;1.80;;;9.90;87.30;;;;;;5009097;28;20189;-77
2024/01/30 11:12:01;;;;;;;3.17;2.33;;;10.00;87.20;;;;;;5012694;28;20533;-78
2024/01/30 11:14:29;;;;;;;3.47;2.70;;;10.00;87.10;;;;;;5027277;28;20506;-73
2024/01/30 11:16:59;;;;;;;1.93;1.63;;;10.00;87.00;;;;;;5022930;28;20466;-77
2024/01/30 11:19:25;;;;;;;3.17;2.63;;;10.00;87.10;;;;;;5033542;28;20427;-74
2024/01/30 11:21:56;;;;;;;2.07;1.93;;;10.00;87.40;;;;;;5000625;28;20448;-76
2024/01/30 11:24:22;;;;;;;4.37;2.53;;;10.00;87.50;;;;;;5003595;28;20842;-70
2024/01/30 11:26:58;;;;;;;2.80;2.60;;;10.00;87.50;;;;;;5029107;28;20946;-75
2024/01/30 11:29:27;;;;;;;6.23;2.80;;;10.00;87.50;;;;;;5003135;28;20226;-77
2024/01/30 11:31:54;;;;;;;9.17;3.70;;;10.10;88.00;;;;;;5027064;28;20459;-74
2024/01/30 11:34:21;;;;;;;7.33;2.83;;;10.20;87.70;;;;;;5008259;28;20442;-74
2024/01/30 11:36:55;;;;;;;3.30;2.17;;;10.20;87.70;;;;;;5009991;28;20481;-77
2024/01/30 11:39:20;;;;;;;1.40;1.30;;;10.30;88.00;;;;;;5047216;23;20596;-86
2024/01/30 11:41:47;;;;;;;2.80;1.93;;;10.40;88.10;;;;;;5052831;28;20856;-87
2024/01/30 11:44:13;;;;;;;10.27;3.57;;;10.40;88.00;;;;;;5052908;28;20180;-86
2024/01/30 11:46:38;;;;;;;3.37;2.17;;;10.50;88.00;;;;;;5047780;28;20463;-86
2024/01/30 11:49:04;;;;;;;5.60;1.87;;;10.50;87.60;;;;;;5053767;28;20583;-86
2024/01/30 11:51:31;;;;;;;13.20;1.90;;;10.60;87.70;;;;;;5071616;28;20187;-86
2024/01/30 11:53:57;;;;;;;5.03;2.53;;;10.60;87.90;;;;;;5052884;28;20276;-86
2024/01/30 11:56:24;;;;;;;4.83;2.87;;;10.60;88.00;;;;;;5053825;28;20444;-87
2024/01/30 11:58:49;;;;;;;2.70;1.70;;;10.70;87.70;;;;;;5053425;28;20485;-87
2024/01/30 12:01:17;;;;;;;5.37;2.13;;;10.70;87.90;;;;;;5053329;28;20413;-87
2024/01/30 12:03:43;;;;;;;2.00;1.90;;;10.70;88.10;;;;;;5070089;28;20175;-87
2024/01/30 12:06:08;;;;;;;2.20;1.83;;;11.00;88.40;;;;;;5046846;28;20501;-87
2024/01/30 12:08:34;;;;;;;7.63;3.23;;;11.30;87.60;;;;;;5043947;28;20203;-87
2024/01/30 12:11:05;;;;;;;1.93;1.83;;;11.60;86.70;;;;;;5052834;28;20180;-86
2024/01/30 12:13:31;;;;;;;3.73;2.03;;;11.80;86.50;;;;;;5052927;28;20456;-87
2024/01/30 12:15:57;;;;;;;7.37;4.40;;;11.90;86.00;;;;;;5055780;28;20418;-87
2024/01/30 12:18:22;;;;;;;1.80;1.70;;;11.90;86.00;;;;;;5055894;28;20445;-87
2024/01/30 12:21:00;;;;;;;1.57;1.50;;;12.00;86.20;;;;;;5053979;28;20791;-87
2024/01/30 12:23:27;;;;;;;2.33;2.17;;;12.20;85.80;;;;;;5070590;28;20182;-87
2024/01/30 12:25:53;;;;;;;6.13;2.33;;;12.20;85.60;;;;;;5053754;28;21151;-87
2024/01/30 12:28:19;;;;;;;2.53;1.93;;;12.20;85.80;;;;;;5059441;28;20441;-87
2024/01/30 12:30:44;;;;;;;1.97;1.87;;;12.20;86.60;;;;;;5046119;28;20620;-87
2024/01/30 12:33:16;;;;;;;2.33;2.13;;;12.10;86.60;;;;;;5067137;28;20486;-88
2024/01/30 12:35:47;;;;;;;3.67;1.90;;;12.20;87.00;;;;;;5055819;28;20660;-87
2024/01/30 12:38:12;;;;;;;6.57;2.10;;;12.20;86.80;;;;;;5055505;28;20445;-88
2024/01/30 12:40:38;;;;;;;3.80;1.93;;;12.30;87.00;;;;;;5053783;28;21062;-86
2024/01/30 12:43:03;;;;;;;1.63;1.53;;;12.30;87.30;;;;;;5058017;28;20712;-86
2024/01/30 12:45:30;;;;;;;3.83;2.53;;;12.40;87.20;;;;;;5067767;28;20242;-87
2024/01/30 12:47:55;;;;;;;2.00;1.37;;;12.40;87.30;;;;;;5061667;28;20191;-87
2024/01/30 12:50:22;;;;;;;4.93;2.47;;;12.50;87.40;;;;;;5052574;28;20422;-87
2024/01/30 12:52:48;;;;;;;1.80;1.73;;;12.80;87.50;;;;;;5049763;28;20563;-87
2024/01/30 12:55:13;;;;;;;4.33;2.43;;;12.80;86.90;;;;;;5052983;28;20476;-88
2024/01/30 12:57:39;;;;;;;2.27;1.80;;;12.90;86.90;;;;;;5055153;28;20177;-87
2024/01/30 13:00:08;;;;;;;3.70;2.03;;;12.90;87.10;;;;;;5069304;28;20382;-87
2024/01/30 13:02:36;;;;;;;2.03;1.70;;;13.00;87.00;;;;;;5047144;28;20178;-87
2024/01/30 13:05:03;;;;;;;4.57;3.00;;;13.20;86.80;;;;;;5051225;28;21123;-87
2024/01/30 13:07:29;;;;;;;2.40;2.20;;;13.20;86.60;;;;;;5050267;28;20475;-87
2024/01/30 13:09:54;;;;;;;2.60;2.37;;;13.30;86.60;;;;;;5044713;28;20448;-86
2024/01/30 13:12:20;;;;;;;2.07;1.93;;;13.40;86.60;;;;;;5049905;28;20648;-87
2024/01/30 13:14:45;;;;;;;8.80;2.73;;;13.50;86.30;;;;;;5068122;28;20187;-87
2024/01/30 13:17:11;;;;;;;3.30;2.40;;;13.70;85.90;;;;;;5052290;28;20172;-87
2024/01/30 13:19:36;;;;;;;2.50;1.97;;;13.70;85.60;;;;;;5050969;28;20746;-88
2024/01/30 13:22:02;;;;;;;1.93;1.70;;;13.90;85.70;;;;;;5050809;28;20211;-87
2024/01/30 13:24:27;;;;;;;2.70;2.50;;;14.20;85.80;;;;;;5050073;28;20201;-87
2024/01/30 13:26:53;;;;;;;4.83;1.60;;;14.40;85.10;;;;;;5050774;28;20179;-87
2024/01/30 13:29:19;;;;;;;3.13;2.93;;;14.60;85.00;;;;;;5050541;28;20191;-88
2024/01/30 13:31:46;;;;;;;1.23;1.10;;;14.30;84.00;;;;;;5047314;28;20715;-88
2024/01/30 13:34:12;;;;;;;8.63;3.30;;;14.00;84.20;;;;;;5053441;28;20994;-87
2024/01/30 13:36:38;;;;;;;2.60;2.27;;;13.70;84.90;;;;;;5050961;28;20413;-87
2024/01/30 13:39:07;;;;;;;3.10;2.37;;;13.70;85.20;;;;;;5044228;28;20465;-87
2024/01/30 13:41:32;;;;;;;2.20;2.03;;;13.60;85.20;;;;;;5051286;28;20424;-87
2024/01/30 13:43:58;;;;;;;1.47;1.30;;;13.50;85.30;;;;;;5054084;28;20422;-86
2024/01/30 13:46:23;;;;;;;2.03;1.90;;;13.70;85.50;;;;;;5071925;28;20552;-88
2024/01/30 13:48:50;;;;;;;4.10;2.80;;;13.80;84.90;;;;;;5052708;28;20213;-86
2024/01/30 13:51:17;;;;;;;5.37;4.00;;;13.80;85.00;;;;;;5074513;28;20223;-87
2024/01/30 13:53:42;;;;;;;6.63;3.30;;;13.70;84.80;;;;;;5048461;28;20461;-87
2024/01/30 13:56:08;;;;;;;2.23;2.07;;;13.60;85.00;;;;;;5048968;28;20949;-87
2024/01/30 13:58:34;;;;;;;4.43;3.03;;;13.40;85.40;;;;;;5052342;28;20183;-87
2024/01/30 14:01:00;;;;;;;3.23;3.03;;;13.60;85.30;;;;;;5047051;28;20207;-87
2024/01/30 14:03:25;;;;;;;5.03;1.53;;;13.50;85.50;;;;;;5070286;28;20428;-87
2024/01/30 14:05:51;;;;;;;2.80;2.23;;;13.60;85.20;;;;;;5054414;28;20207;-87
2024/01/30 14:08:16;;;;;;;4.53;1.97;;;13.40;85.50;;;;;;5051031;28;20203;-88
2024/01/30 14:10:42;;;;;;;3.50;2.97;;;13.20;86.00;;;;;;5055103;28;20240;-88
2024/01/30 14:13:07;;;;;;;2.80;2.17;;;13.00;86.10;;;;;;5052221;28;20199;-88
2024/01/30 14:15:33;;;;;;;2.40;2.07;;;12.70;86.90;;;;;;5052127;28;20171;-87
2024/01/30 14:17:58;;;;;;;3.03;1.73;;;12.70;87.40;;;;;;5054760;28;20218;-87
2024/01/30 14:20:24;;;;;;;5.07;2.73;;;12.60;87.60;;;;;;5055366;28;20179;-87
2024/01/30 14:22:49;;;;;;;2.23;2.10;;;12.60;87.90;;;;;;5054994;28;20565;-89
2024/01/30 14:25:16;;;;;;;1.90;1.80;;;12.50;87.90;;;;;;5055699;28;20178;-88
2024/01/30 14:27:42;;;;;;;2.43;1.80;;;12.50;88.30;;;;;;5055061;28;20179;-86
2024/01/30 14:30:11;;;;;;;1.50;1.40;;;12.40;88.70;;;;;;5051711;28;20658;-86
2024/01/30 14:32:38;;;;;;;4.27;2.43;;;12.30;88.70;;;;;;5054598;28;20611;-86
2024/01/30 14:35:04;;;;;;;4.67;4.13;;;12.30;89.00;;;;;;5053643;28;20432;-86
2024/01/30 14:37:30;;;;;;;3.90;1.80;;;12.20;89.10;;;;;;5054600;28;20590;-87
2024/01/30 14:39:55;;;;;;;2.90;1.77;;;12.20;89.40;;;;;;5053968;28;21002;-87
2024/01/30 14:42:21;;;;;;;2.50;2.30;;;12.10;89.70;;;;;;5071406;28;20262;-87
2024/01/30 14:44:46;;;;;;;3.27;2.33;;;12.00;90.10;;;;;;5054385;28;20197;-86
2024/01/30 14:47:13;;;;;;;3.10;1.47;;;11.90;90.20;;;;;;5052270;28;20176;-86
2024/01/30 14:49:38;;;;;;;2.20;1.80;;;11.90;90.50;;;;;;5057003;28;20244;-87
2024/01/30 14:52:04;;;;;;;4.23;3.57;;;11.80;90.90;;;;;;5059709;28;20433;-86
2024/01/30 14:54:30;;;;;;;9.43;3.20;;;11.70;91.10;;;;;;5058329;28;20183;-86
2024/01/30 14:59:56;;;;;;;7.13;2.50;;;11.70;91.40;;;;;;5072209;28;20466;-86
2024/01/30 15:02:25;;;;;;;6.30;2.07;;;11.60;91.70;;;;;;5059629;28;20418;-85
2024/01/30 15:05:05;;;;;;;4.70;2.50;;;11.60;91.90;;;;;;5057408;28;20464;-85
2024/01/30 15:07:53;;;;;;;1.87;1.77;;;11.60;91.90;;;;;;5054786;28;20417;-87
2024/01/30 15:10:35;;;;;;;1.77;1.67;;;11.50;92.10;;;;;;5054070;28;20968;-87
2024/01/30 15:13:03;;;;;;;4.40;2.17;;;11.50;92.40;;;;;;5063454;28;20480;-89
2024/01/30 15:15:44;;;;;;;3.40;2.17;;;11.50;92.50;;;;;;5049201;28;20997;-85
2024/01/30 15:18:35;;;;;;;2.70;2.43;;;11.40;92.60;;;;;;5051541;28;20473;-86
2024/01/30 15:21:46;;;;;;;1.63;1.53;;;11.40;92.80;;;;;;5040591;28;20418;-83
2024/01/30 15:27:06;;;;;;;4.17;2.17;;;11.30;93.30;;;;;;5061902;28;20918;-85
2024/01/30 15:30:04;;;;;;;2.30;2.00;;;11.30;93.40;;;;;;5067192;28;20437;-86
2024/01/30 15:32:46;;;;;;;2.97;2.37;;;11.20;93.70;;;;;;5055051;28;20488;-85
2024/01/30 15:35:24;;;;;;;;;;;;;;;;;;;;;
2024/01/30 15:37:53;;;;;;;2.63;1.90;;;11.10;94.20;;;;;;5072330;28;20415;-85
2024/01/30 15:40:26;;;;;;;6.83;2.60;;;11.10;94.40;;;;;;5069290;28;20465;-86
2024/01/30 15:42:55;;;;;;;2.63;1.93;;;11.00;94.60;;;;;;5051666;28;20487;-86
2024/01/30 15:45:34;;;;;;;3.10;2.57;;;11.00;94.60;;;;;;5052671;28;20417;-86
2024/01/30 15:48:23;;;;;;;2.23;2.03;;;11.00;94.70;;;;;;5053668;28;20666;-86
2024/01/30 15:50:56;;;;;;;4.43;2.60;;;11.00;94.80;;;;;;5066889;28;20478;-86
2024/01/30 15:53:26;;;;;;;5.03;2.40;;;10.90;95.00;;;;;;5053088;28;20453;-86
2024/01/30 15:55:54;;;;;;;4.10;2.27;;;10.80;95.20;;;;;;5053265;28;20500;-85
2024/01/30 15:58:24;;;;;;;4.30;2.23;;;10.80;95.30;;;;;;5054437;28;20515;-85
2024/01/30 16:00:56;;;;;;;4.83;2.40;;;10.80;95.40;;;;;;5050433;28;20421;-85
2024/01/30 16:03:25;;;;;;;2.20;1.70;;;10.70;95.40;;;;;;5055794;28;20930;-86
2024/01/30 16:05:59;;;;;;;3.37;2.87;;;10.70;95.70;;;;;;5051484;28;20432;-86
2024/01/30 16:09:04;;;;;;;3.50;3.00;;;10.60;95.90;;;;;;5055847;28;20442;-86
2024/01/30 16:11:35;;;;;;;1.90;1.87;;;10.60;96.00;;;;;;5045321;28;20449;-85
2024/01/30 16:14:06;;;;;;;1.87;1.83;;;10.50;96.20;;;;;;5071253;28;20543;-85
2024/01/30 16:16:34;;;;;;;2.97;2.77;;;10.40;96.30;;;;;;5065050;28;20790;-86
2024/01/30 16:19:06;;;;;;;2.60;2.40;;;10.40;96.30;;;;;;5055194;28;20433;-86
2024/01/30 16:21:34;;;;;;;2.30;2.20;;;10.40;96.40;;;;;;5047643;28;20856;-86
2024/01/30 16:24:00;;;;;;;2.20;2.00;;;10.40;96.40;;;;;;5053524;28;20422;-86
2024/01/30 16:26:26;;;;;;;1.93;1.50;;;10.30;96.60;;;;;;5054968;28;20418;-85
2024/01/30 16:28:54;;;;;;;4.77;3.57;;;10.30;96.70;;;;;;5053671;28;20707;-84
2024/01/30 16:31:20;;;;;;;2.80;2.33;;;10.20;96.80;;;;;;5052655;28;20433;-85
2024/01/30 16:33:49;;;;;;;32.63;4.67;;;10.20;96.90;;;;;;5046505;28;20465;-86
2024/01/30 16:36:15;;;;;;;2.53;2.33;;;10.10;97.10;;;;;;5045796;28;20186;-87
2024/01/30 16:38:41;;;;;;;2.43;2.23;;;10.00;97.30;;;;;;5054400;28;20476;-87
2024/01/30 16:41:07;;;;;;;6.20;3.60;;;10.00;97.30;;;;;;5071140;28;20417;-86
2024/01/30 16:43:33;;;;;;;2.53;2.33;;;9.90;97.30;;;;;;5052497;28;20418;-86
2024/01/30 16:45:59;;;;;;;7.83;3.57;;;9.90;97.30;;;;;;5052509;28;20665;-87
2024/01/30 16:48:26;;;;;;;3.50;1.90;;;9.70;97.30;;;;;;5054959;28;20286;-87
2024/01/30 16:50:52;;;;;;;7.83;2.87;;;9.60;97.30;;;;;;5053808;28;20580;-86
2024/01/30 16:53:17;;;;;;;5.67;2.20;;;9.50;97.30;;;;;;5054618;28;21073;-87
2024/01/30 16:55:43;;;;;;;3.13;2.93;;;9.40;97.30;;;;;;5053059;28;20194;-86
2024/01/30 16:58:09;;;;;;;1.90;1.80;;;9.40;97.30;;;;;;5070963;28;20207;-86
2024/01/30 17:00:35;;;;;;;2.50;2.00;;;9.40;97.30;;;;;;5054519;28;20187;-86
2024/01/30 17:03:02;;;;;;;3.53;3.03;;;9.40;97.30;;;;;;5054237;28;20779;-86
2024/01/30 17:05:28;;;;;;;2.17;2.00;;;9.40;97.30;;;;;;5052849;28;20183;-87
2024/01/30 17:07:54;;;;;;;2.83;2.63;;;9.40;97.30;;;;;;5051597;28;20417;-86
2024/01/30 17:10:19;;;;;;;4.30;4.03;;;9.40;97.30;;;;;;5051565;28;20262;-86
2024/01/30 17:12:46;;;;;;;3.10;2.33;;;9.40;97.30;;;;;;5053314;28;20392;-85
2024/01/30 17:15:11;;;;;;;3.97;3.43;;;9.40;97.30;;;;;;5053866;28;20175;-86
2024/01/30 17:17:37;;;;;;;3.53;3.43;;;9.40;97.30;;;;;;5054261;28;20449;-85
2024/01/30 17:20:03;;;;;;;2.00;1.87;;;9.30;97.30;;;;;;5051545;28;20191;-86
2024/01/30 17:22:29;;;;;;;11.20;2.80;;;9.30;97.30;;;;;;5030347;28;20244;-85
2024/01/30 17:24:55;;;;;;;2.23;2.03;;;9.30;97.30;;;;;;5054227;28;20606;-83
2024/01/30 17:27:21;;;;;;;5.43;2.47;;;9.20;97.30;;;;;;5068067;28;20560;-85
2024/01/30 17:29:46;;;;;;;3.80;2.87;;;9.20;97.30;;;;;;5054143;28;20479;-85
2024/01/30 17:32:12;;;;;;;2.30;2.13;;;9.20;97.30;;;;;;5051118;28;20183;-86
2024/01/30 17:34:38;;;;;;;5.20;2.00;;;9.20;97.30;;;;;;5053800;28;20232;-85
2024/01/30 17:37:04;;;;;;;3.37;3.17;;;9.20;97.30;;;;;;5052300;28;20175;-85
2024/01/30 17:39:29;;;;;;;3.00;2.83;;;9.20;97.30;;;;;;5046489;28;20499;-86
2024/01/30 17:41:55;;;;;;;2.00;1.90;;;9.20;97.30;;;;;;5051546;28;20178;-86
2024/01/30 17:44:20;;;;;;;6.83;2.93;;;9.10;97.30;;;;;;5053483;28;20176;-85
2024/01/30 17:46:47;;;;;;;3.90;2.47;;;9.10;97.30;;;;;;5052408;28;20190;-88
2024/01/30 17:49:12;;;;;;;6.10;2.40;;;9.10;97.30;;;;;;5052183;28;20205;-85
2024/01/30 17:51:41;;;;;;;2.93;2.30;;;9.10;97.30;;;;;;5051261;28;20504;-86
2024/01/30 17:54:07;;;;;;;4.43;2.30;;;9.10;97.30;;;;;;5050800;28;20202;-86
2024/01/30 17:56:33;;;;;;;1.87;1.60;;;9.10;97.30;;;;;;5052073;28;20896;-85
2024/01/30 17:58:58;;;;;;;1.80;1.70;;;9.10;97.30;;;;;;5052247;28;20433;-85
2024/01/30 18:01:24;;;;;;;2.80;2.60;;;9.10;97.30;;;;;;5050519;28;20236;-86